createdAt,value
2023-04-30T00:02:04.828Z,98832.09
2023-04-30T00:04:37.432Z,98820.38
2023-04-30T00:07:41.147Z,98835.47
2023-04-30T00:10:10.832Z,98832.88
2023-04-30T00:12:43.238Z,98830.22
2023-04-30T00:15:28.185Z,98844.47
2023-04-30T00:18:05.505Z,98846.41
2023-04-30T00:20:32.452Z,98850.72
2023-04-30T00:26:18.471Z,98856.72
2023-04-30T00:28:47.314Z,98858.66
2023-04-30T00:31:16.907Z,98854.25
2023-04-30T00:33:44.384Z,98866.81
2023-04-30T00:36:18.169Z,98862.97
2023-04-30T00:38:45.740Z,98875.63
2023-04-30T00:44:09.551Z,98860.44
2023-04-30T00:46:42.208Z,98866.25
2023-04-30T00:49:21.536Z,98864.50
2023-04-30T00:55:37.574Z,98862.88
2023-04-30T01:02:10.758Z,98869.91
2023-04-30T01:04:37.234Z,98860.53
2023-04-30T01:07:03.956Z,98873.16
2023-04-30T01:09:41.103Z,98860.72
2023-04-30T01:12:26.190Z,98862.97
2023-04-30T01:15:22.877Z,98856.03
2023-04-30T01:18:07.940Z,98862.59
2023-04-30T01:20:45.995Z,98855.63
2023-04-30T01:23:36.962Z,98861.06
2023-04-30T01:29:53.337Z,98861.47
2023-04-30T01:32:26.222Z,98870.09
2023-04-30T01:39:02.015Z,98882.97
2023-04-30T01:41:43.741Z,98880.91
2023-04-30T01:44:53.630Z,98892.03
2023-04-30T01:47:44.898Z,98884.09
2023-04-30T01:50:51.520Z,98886.47
2023-04-30T01:53:36.358Z,98891.59
2023-04-30T01:56:04.361Z,98891.06
2023-04-30T01:58:38.285Z,98899.91
2023-04-30T02:01:08.913Z,98893.53
2023-04-30T02:03:35.623Z,98897.09
2023-04-30T02:06:07.796Z,98899.78
2023-04-30T02:08:34.366Z,98900.16
2023-04-30T02:11:02.220Z,98899.13
2023-04-30T02:13:30.023Z,98900.03
2023-04-30T02:15:59.289Z,98904.81
2023-04-30T02:18:27.077Z,98897.50
2023-04-30T02:20:55.211Z,98900.44
2023-04-30T02:23:21.720Z,98903.28
2023-04-30T02:26:00.773Z,98908.31
2023-04-30T02:28:28.356Z,98905.44
2023-04-30T02:34:51.075Z,98906.03
2023-04-30T02:41:22.418Z,98902.91
2023-04-30T02:47:48.637Z,98911.53
2023-04-30T03:12:29.173Z,98913.25
2023-04-30T03:18:55.415Z,98907.59
2023-04-30T03:21:39.012Z,98921.03
2023-04-30T03:24:07.168Z,98926.00
2023-04-30T03:26:51.412Z,98920.41
2023-04-30T03:37:34.709Z,98934.97
2023-04-30T03:40:02.271Z,98932.50
2023-04-30T03:56:36.404Z,98939.56
2023-04-30T04:02:54.677Z,98938.47
2023-04-30T04:08:12.476Z,98946.50
2023-04-30T04:10:42.080Z,98948.06
2023-04-30T04:13:17.905Z,98939.25
2023-04-30T04:25:18.604Z,98948.44
2023-04-30T04:27:54.526Z,98949.53
2023-04-30T04:41:43.578Z,98942.63
2023-04-30T05:00:17.249Z,98921.41
2023-04-30T05:14:01.532Z,98919.00
2023-04-30T05:23:58.861Z,98931.22
2023-04-30T05:26:43.569Z,98933.78
2023-04-30T05:29:13.502Z,98932.91
2023-04-30T05:42:48.368Z,98939.66
2023-04-30T05:51:21.093Z,98947.63
2023-04-30T06:16:34.939Z,98951.19
2023-04-30T06:19:23.462Z,98952.00
2023-04-30T06:22:00.490Z,98947.50
2023-04-30T06:28:17.217Z,98950.31
2023-04-30T06:34:41.450Z,98951.91
2023-04-30T06:51:15.353Z,98968.03
2023-04-30T06:53:41.783Z,98974.09
2023-04-30T06:56:08.216Z,98961.72
2023-04-30T06:58:34.644Z,98973.13
2023-04-30T07:01:01.395Z,98975.16
2023-04-30T07:03:28.318Z,98968.44
2023-04-30T07:05:54.992Z,98961.97
2023-04-30T07:08:22.241Z,98963.50
2023-04-30T07:10:48.719Z,98965.72
2023-04-30T07:13:16.491Z,98959.13
2023-04-30T07:15:43.021Z,98961.56
2023-04-30T07:18:10.015Z,98961.75
2023-04-30T07:20:36.696Z,98963.03
2023-04-30T07:23:03.412Z,98966.13
2023-04-30T07:25:29.932Z,98972.09
2023-04-30T07:27:56.425Z,98977.84
2023-04-30T07:30:24.893Z,98965.28
2023-04-30T07:32:51.795Z,98979.00
2023-04-30T07:35:19.274Z,98967.78
2023-04-30T07:37:45.834Z,98961.97
2023-04-30T07:40:15.311Z,98967.78
2023-04-30T07:42:45.092Z,98965.09
2023-04-30T07:45:13.024Z,98963.06
2023-04-30T07:47:39.577Z,98965.81
2023-04-30T07:50:06.541Z,98957.03
2023-04-30T07:52:33.011Z,98959.06
2023-04-30T07:54:59.491Z,98965.59
2023-04-30T07:57:27.030Z,98956.22
2023-04-30T07:59:54.185Z,98961.09
2023-04-30T08:02:21.245Z,98970.50
2023-04-30T08:04:48.103Z,98969.41
2023-04-30T08:07:15.956Z,98978.72
2023-04-30T08:09:42.424Z,98957.84
2023-04-30T08:12:09.629Z,98965.03
2023-04-30T08:14:36.391Z,98971.47
2023-04-30T08:17:03.346Z,98978.28
2023-04-30T08:19:29.924Z,98967.16
2023-04-30T08:21:56.432Z,98972.47
2023-04-30T08:24:22.922Z,98982.53
2023-04-30T08:26:49.415Z,98972.44
2023-04-30T08:29:15.882Z,98969.88
2023-04-30T08:31:42.369Z,98965.72
2023-04-30T08:34:08.875Z,98977.28
2023-04-30T08:36:35.881Z,98967.03
2023-04-30T08:39:02.373Z,98960.59
2023-04-30T08:41:33.613Z,98961.59
2023-04-30T08:44:01.521Z,98960.47
2023-04-30T08:46:29.237Z,98962.19
2023-04-30T08:48:55.807Z,98971.06
2023-04-30T08:51:22.315Z,98978.31
2023-04-30T08:53:50.700Z,98970.50
2023-04-30T08:56:17.525Z,98981.28
2023-04-30T08:58:44.318Z,98974.38
2023-04-30T09:01:11.147Z,98976.16
2023-04-30T09:03:37.833Z,98968.94
2023-04-30T09:06:04.493Z,98947.69
2023-04-30T09:08:49.940Z,98965.66
2023-04-30T09:11:32.206Z,98962.56
2023-04-30T09:13:59.425Z,98958.72
2023-04-30T09:16:27.498Z,98962.38
2023-04-30T09:18:54.308Z,98964.47
2023-04-30T09:21:34.060Z,98958.50
2023-04-30T09:24:01.905Z,98965.16
2023-04-30T09:26:33.119Z,98953.16
2023-04-30T09:28:59.826Z,98963.09
2023-04-30T09:31:27.914Z,98944.53
2023-04-30T09:33:54.435Z,98943.22
2023-04-30T09:36:20.928Z,98957.53
2023-04-30T09:38:47.431Z,98952.66
2023-04-30T09:41:27.340Z,98965.59
2023-04-30T09:43:56.945Z,98959.22
2023-04-30T09:46:31.046Z,98965.66
2023-04-30T09:49:01.639Z,98967.41
2023-04-30T09:51:28.758Z,98964.72
2023-04-30T09:53:56.052Z,98965.25
2023-04-30T09:56:26.704Z,98973.22
2023-04-30T09:58:56.859Z,98966.72
2023-04-30T10:01:27.076Z,98966.88
2023-04-30T10:03:53.531Z,98958.50
2023-04-30T10:06:23.269Z,98969.78
2023-04-30T10:08:53.417Z,98960.81
2023-04-30T10:11:21.444Z,98976.50
2023-04-30T10:13:53.570Z,98968.50
2023-04-30T10:16:32.819Z,98956.13
2023-04-30T10:19:00.262Z,98944.22
2023-04-30T10:21:27.234Z,98947.00
2023-04-30T10:23:54.718Z,98944.25
2023-04-30T10:26:21.201Z,98934.97
2023-04-30T10:28:47.704Z,98945.81
2023-04-30T10:31:14.269Z,98940.03
2023-04-30T10:34:07.009Z,98944.19
2023-04-30T10:36:40.913Z,98944.13
2023-04-30T10:39:07.393Z,98942.56
2023-04-30T10:41:33.889Z,98940.66
2023-04-30T10:44:02.253Z,98930.31
2023-04-30T10:46:29.051Z,98931.34
2023-04-30T10:48:55.704Z,98932.81
2023-04-30T10:51:22.530Z,98926.94
2023-04-30T10:53:52.968Z,98915.31
2023-04-30T10:56:32.135Z,98912.44
2023-04-30T10:59:00.140Z,98920.53
2023-04-30T11:01:26.995Z,98920.84
2023-04-30T11:04:10.036Z,98911.28
2023-04-30T11:06:52.181Z,98903.78
2023-04-30T11:09:18.752Z,98913.72
2023-04-30T11:11:45.751Z,98913.44
2023-04-30T11:14:12.303Z,98906.00
2023-04-30T11:16:38.920Z,98905.50
2023-04-30T11:19:15.292Z,98904.38
2023-04-30T11:21:42.499Z,98909.91
2023-04-30T11:24:08.998Z,98899.50
2023-04-30T11:27:05.458Z,98924.31
2023-04-30T11:29:32.032Z,98901.06
2023-04-30T11:32:00.979Z,98917.50
2023-04-30T11:34:27.483Z,98917.97
2023-04-30T11:36:55.359Z,98900.75
2023-04-30T11:39:22.438Z,98916.88
2023-04-30T11:41:48.928Z,98911.41
2023-04-30T11:44:27.776Z,98898.78
2023-04-30T11:46:54.606Z,98894.47
2023-04-30T11:49:21.152Z,98892.81
2023-04-30T11:51:50.925Z,98900.72
2023-04-30T11:54:18.521Z,98903.78
2023-04-30T11:56:48.614Z,98895.22
2023-04-30T11:59:15.301Z,98888.63
2023-04-30T12:01:42.393Z,98894.63
2023-04-30T12:04:09.127Z,98903.03
2023-04-30T12:06:35.879Z,98893.75
2023-04-30T12:09:04.811Z,98894.00
2023-04-30T12:11:31.665Z,98890.53
2023-04-30T12:14:03.362Z,98885.94
2023-04-30T12:16:50.285Z,98894.13
2023-04-30T12:19:17.689Z,98887.56
2023-04-30T12:21:46.275Z,98879.22
2023-04-30T12:24:19.339Z,98887.47
2023-04-30T12:26:45.895Z,98887.91
2023-04-30T12:29:16.562Z,98877.41
2023-04-30T12:31:43.177Z,98868.88
2023-04-30T12:34:11.791Z,98877.16
2023-04-30T12:36:39.052Z,98876.09
2023-04-30T12:39:05.649Z,98875.56
2023-04-30T12:41:32.858Z,98881.66
2023-04-30T12:44:20.796Z,98880.66
2023-04-30T12:46:51.374Z,98875.22
2023-04-30T12:49:30.580Z,98874.84
2023-04-30T12:52:04.744Z,98873.47
2023-04-30T12:54:32.468Z,98872.66
2023-04-30T12:57:03.489Z,98864.75
2023-04-30T12:59:33.451Z,98864.06
2023-04-30T13:02:13.392Z,98858.34
2023-04-30T13:04:40.811Z,98859.53
2023-04-30T13:07:07.443Z,98852.38
2023-04-30T13:09:34.346Z,98844.09
2023-04-30T13:12:01.173Z,98848.69
2023-04-30T13:14:27.733Z,98846.75
2023-04-30T13:16:54.599Z,98834.50
2023-04-30T13:19:21.263Z,98840.09
2023-04-30T13:21:47.726Z,98822.50
2023-04-30T13:24:14.215Z,98828.78
2023-04-30T13:26:40.690Z,98830.72
2023-04-30T13:29:07.423Z,98819.56
2023-04-30T13:31:34.030Z,98813.38
2023-04-30T13:34:00.853Z,98813.72
2023-04-30T13:36:27.350Z,98801.31
2023-04-30T13:38:54.070Z,98813.81
2023-04-30T13:41:22.031Z,98804.44
2023-04-30T13:43:49.129Z,98802.50
2023-04-30T13:46:16.614Z,98797.47
2023-04-30T13:48:43.198Z,98799.81
2023-04-30T13:51:09.695Z,98803.31
2023-04-30T13:53:37.284Z,98795.66
2023-04-30T13:56:03.894Z,98789.09
2023-04-30T13:58:30.377Z,98790.63
2023-04-30T14:00:56.882Z,98785.47
2023-04-30T14:03:23.444Z,98786.13
2023-04-30T14:05:50.063Z,98778.22
2023-04-30T14:08:16.546Z,98769.09
2023-04-30T14:10:43.077Z,98770.25
2023-04-30T14:13:09.820Z,98777.13
2023-04-30T14:15:36.284Z,98769.84
2023-04-30T14:18:02.838Z,98764.22
2023-04-30T14:20:29.451Z,98772.47
2023-04-30T14:22:56.085Z,98770.53
2023-04-30T14:25:22.544Z,98771.25
2023-04-30T14:27:49.008Z,98762.47
2023-04-30T14:30:15.633Z,98757.69
2023-04-30T14:32:42.136Z,98759.97
2023-04-30T14:35:09.656Z,98755.53
2023-04-30T14:37:36.144Z,98757.00
2023-04-30T14:40:02.978Z,98748.97
2023-04-30T14:42:29.501Z,98755.84
2023-04-30T14:44:56.233Z,98755.97
2023-04-30T14:47:27.107Z,98754.22
2023-04-30T14:49:54.001Z,98747.03
2023-04-30T14:52:20.639Z,98744.16
2023-04-30T14:54:47.114Z,98751.34
2023-04-30T14:57:14.260Z,98745.69
2023-04-30T14:59:41.775Z,98738.13
2023-04-30T15:02:09.095Z,98736.75
2023-04-30T15:04:35.616Z,98744.66
2023-04-30T15:07:02.508Z,98742.34
2023-04-30T15:09:29.045Z,98727.47
2023-04-30T15:11:55.938Z,98735.66
2023-04-30T15:14:22.475Z,98734.53
2023-04-30T15:16:48.938Z,98726.81
2023-04-30T15:19:15.461Z,98727.94
2023-04-30T15:21:42.041Z,98722.34
2023-04-30T15:24:08.948Z,98727.13
2023-04-30T15:26:35.410Z,98726.41
2023-04-30T15:29:01.869Z,98734.06
2023-04-30T15:31:28.395Z,98725.50
2023-04-30T15:33:54.917Z,98717.19
2023-04-30T15:36:23.248Z,98719.53
2023-04-30T15:38:49.746Z,98715.19
2023-04-30T15:41:16.206Z,98713.63
2023-04-30T15:43:42.680Z,98716.50
2023-04-30T15:46:09.289Z,98709.91
2023-04-30T15:48:35.793Z,98707.31
2023-04-30T15:51:02.323Z,98710.13
2023-04-30T15:53:28.788Z,98709.91
2023-04-30T15:55:57.009Z,98708.63
2023-04-30T15:58:23.790Z,98708.03
2023-04-30T16:00:50.398Z,98708.09
2023-04-30T16:03:16.983Z,98695.00
2023-04-30T16:05:43.900Z,98701.19
2023-04-30T16:08:10.551Z,98699.69
2023-04-30T16:10:37.370Z,98703.00
2023-04-30T16:13:03.858Z,98700.94
2023-04-30T16:15:30.442Z,98694.19
2023-04-30T16:17:57.259Z,98694.53
2023-04-30T16:20:24.051Z,98692.41
2023-04-30T16:22:50.602Z,98690.59
2023-04-30T16:25:17.190Z,98688.97
2023-04-30T16:27:44.140Z,98679.41
2023-04-30T16:30:11.203Z,98673.16
2023-04-30T16:32:37.725Z,98673.16
2023-04-30T16:35:04.397Z,98665.88
2023-04-30T16:37:31.098Z,98672.53
2023-04-30T16:39:57.812Z,98669.44
2023-04-30T16:42:24.667Z,98663.88
2023-04-30T16:44:51.208Z,98665.84
2023-04-30T16:47:18.687Z,98651.03
2023-04-30T16:49:45.183Z,98656.44
2023-04-30T16:52:12.151Z,98666.72
2023-04-30T16:54:38.890Z,98656.81
2023-04-30T16:57:05.406Z,98663.72
2023-04-30T16:59:31.910Z,98656.13
2023-04-30T17:02:00.506Z,98659.22
2023-04-30T17:04:27.239Z,98660.31
2023-04-30T17:06:53.897Z,98654.09
2023-04-30T17:09:20.389Z,98650.78
2023-04-30T17:11:47.035Z,98651.13
2023-04-30T17:14:13.527Z,98649.78
2023-04-30T17:16:39.993Z,98646.72
2023-04-30T17:19:07.654Z,98648.34
2023-04-30T17:21:34.283Z,98652.59
2023-04-30T17:24:01.637Z,98649.81
2023-04-30T17:26:28.143Z,98651.38
2023-04-30T17:28:54.619Z,98658.47
2023-04-30T17:31:21.102Z,98658.88
2023-04-30T17:33:47.644Z,98660.59
2023-04-30T17:36:14.193Z,98663.13
2023-04-30T17:38:40.694Z,98663.72
2023-04-30T17:41:07.240Z,98657.69
2023-04-30T17:43:33.708Z,98670.34
2023-04-30T17:46:00.252Z,98662.31
2023-04-30T17:48:27.269Z,98659.81
2023-04-30T17:50:54.311Z,98656.00
2023-04-30T17:53:20.905Z,98659.50
2023-04-30T17:55:47.382Z,98653.94
2023-04-30T17:58:14.011Z,98658.31
2023-04-30T18:00:40.971Z,98657.41
2023-04-30T18:03:08.182Z,98657.06
2023-04-30T18:05:35.814Z,98665.84
2023-04-30T18:08:02.530Z,98655.63
2023-04-30T18:10:29.010Z,98656.31
2023-04-30T18:13:00.763Z,98657.13
2023-04-30T18:15:27.418Z,98655.78
2023-04-30T18:17:54.215Z,98657.41
2023-04-30T18:20:23.716Z,98659.06
2023-04-30T18:22:50.233Z,98649.97
2023-04-30T18:25:17.370Z,98650.97
2023-04-30T18:27:44.047Z,98658.94
2023-04-30T18:30:11.494Z,98653.78
2023-04-30T18:32:38.067Z,98657.19
2023-04-30T18:35:04.816Z,98651.97
2023-04-30T18:37:31.874Z,98655.41
2023-04-30T18:39:58.501Z,98658.47
2023-04-30T18:42:25.013Z,98657.31
2023-04-30T18:44:51.529Z,98657.66
2023-04-30T18:47:18.008Z,98654.78
2023-04-30T18:49:45.084Z,98651.91
2023-04-30T18:52:11.592Z,98643.13
2023-04-30T18:54:38.072Z,98649.47
2023-04-30T18:57:06.095Z,98642.72
2023-04-30T18:59:33.255Z,98646.28
2023-04-30T19:02:00.103Z,98646.84
2023-04-30T19:04:27.492Z,98655.75
2023-04-30T19:06:55.691Z,98642.28
2023-04-30T19:09:22.504Z,98645.34
2023-04-30T19:11:53.243Z,98650.50
2023-04-30T19:14:19.878Z,98640.81
2023-04-30T19:16:46.779Z,98649.53
2023-04-30T19:19:16.775Z,98643.47
2023-04-30T19:21:43.739Z,98652.56
2023-04-30T19:24:10.275Z,98659.66
2023-04-30T19:26:38.158Z,98652.00
2023-04-30T19:29:04.722Z,98657.38
2023-04-30T19:31:31.574Z,98652.56
2023-04-30T19:33:59.406Z,98642.47
2023-04-30T19:36:28.475Z,98645.63
2023-04-30T19:38:56.216Z,98652.69
2023-04-30T19:41:26.137Z,98651.34
2023-04-30T19:43:53.603Z,98661.69
2023-04-30T19:46:25.918Z,98658.19
2023-04-30T19:48:54.571Z,98658.53
2023-04-30T19:51:24.640Z,98642.09
2023-04-30T19:53:52.283Z,98647.72
2023-04-30T19:56:19.218Z,98652.59
2023-04-30T19:58:47.429Z,98652.44
2023-04-30T20:01:14.619Z,98643.03
2023-04-30T20:03:42.089Z,98651.00
2023-04-30T20:06:09.698Z,98642.75
2023-04-30T20:08:36.450Z,98639.88
2023-04-30T20:11:03.988Z,98640.44
2023-04-30T20:13:30.613Z,98641.94
2023-04-30T20:15:57.437Z,98640.19
2023-04-30T20:18:24.006Z,98635.66
2023-04-30T20:20:50.679Z,98629.16
2023-04-30T20:23:17.716Z,98636.78
2023-04-30T20:25:45.397Z,98625.31
2023-04-30T20:28:13.023Z,98625.72
2023-04-30T20:30:42.761Z,98629.22
2023-04-30T20:33:10.172Z,98622.22
2023-04-30T20:35:36.766Z,98625.22
2023-04-30T20:38:03.250Z,98629.38
2023-04-30T20:40:29.752Z,98623.91
2023-04-30T20:42:56.217Z,98619.81
2023-04-30T20:45:23.642Z,98620.06
2023-04-30T20:47:50.286Z,98614.59
2023-04-30T20:50:16.825Z,98610.06
2023-04-30T20:52:43.716Z,98615.47
2023-04-30T20:55:10.585Z,98605.84
2023-04-30T20:57:37.082Z,98598.69
2023-04-30T21:00:04.880Z,98605.34
2023-04-30T21:02:31.464Z,98600.00
2023-04-30T21:05:04.384Z,98601.03
2023-04-30T21:07:37.283Z,98596.91
2023-04-30T21:10:05.195Z,98595.28
2023-04-30T21:12:31.657Z,98594.53
2023-04-30T21:14:59.667Z,98592.47
2023-04-30T21:17:26.324Z,98600.28
2023-04-30T21:19:53.022Z,98594.09
2023-04-30T21:22:19.996Z,98596.56
2023-04-30T21:24:46.464Z,98598.22
2023-04-30T21:27:12.934Z,98585.06
2023-04-30T21:29:42.172Z,98597.38
2023-04-30T21:32:08.646Z,98589.25
2023-04-30T21:34:35.147Z,98588.06
2023-04-30T21:37:01.701Z,98581.50
2023-04-30T21:39:29.415Z,98579.50
2023-04-30T21:41:55.864Z,98576.09
2023-04-30T21:44:22.342Z,98581.25
2023-04-30T21:46:49.187Z,98578.81
2023-04-30T21:49:16.768Z,98578.25
2023-04-30T21:51:43.227Z,98570.22
2023-04-30T21:54:09.705Z,98568.34
2023-04-30T21:56:36.493Z,98570.47
2023-04-30T21:59:02.952Z,98569.50
2023-04-30T22:01:30.108Z,98566.19
2023-04-30T22:03:57.108Z,98567.31
2023-04-30T22:06:23.691Z,98569.63
2023-04-30T22:08:50.168Z,98564.28
2023-04-30T22:11:19.132Z,98562.28
2023-04-30T22:13:45.598Z,98566.06
2023-04-30T22:16:12.307Z,98561.97
2023-04-30T22:18:39.729Z,98564.88
2023-04-30T22:21:06.609Z,98552.03
2023-04-30T22:23:33.120Z,98562.81
2023-04-30T22:26:00.105Z,98561.69
2023-04-30T22:28:27.063Z,98559.59
2023-04-30T22:30:59.768Z,98557.97
2023-04-30T22:33:26.312Z,98558.78
2023-04-30T22:35:53.109Z,98559.25
2023-04-30T22:38:19.890Z,98561.06
2023-04-30T22:40:46.441Z,98553.59
2023-04-30T22:43:12.913Z,98557.63
2023-04-30T22:45:40.526Z,98556.81
2023-04-30T22:48:07.955Z,98545.97
2023-04-30T22:50:34.971Z,98544.00
2023-04-30T22:53:01.511Z,98541.69
2023-04-30T22:55:28.313Z,98545.06
2023-04-30T22:57:54.844Z,98545.88
2023-04-30T23:00:21.325Z,98540.06
2023-04-30T23:02:47.901Z,98527.78
2023-04-30T23:05:14.533Z,98525.66
2023-04-30T23:07:41.087Z,98518.81
2023-04-30T23:10:07.800Z,98533.63
2023-04-30T23:12:35.603Z,98519.28
2023-04-30T23:15:02.157Z,98523.84
2023-04-30T23:17:28.673Z,98523.19
2023-04-30T23:19:55.284Z,98512.47
2023-04-30T23:22:22.067Z,98519.47
2023-04-30T23:24:48.573Z,98521.91
2023-04-30T23:27:15.120Z,98517.69
2023-04-30T23:29:42.888Z,98524.19
2023-04-30T23:32:09.427Z,98520.63
2023-04-30T23:34:35.971Z,98515.44
2023-04-30T23:37:02.476Z,98517.06
2023-04-30T23:39:29.159Z,98515.28
2023-04-30T23:41:55.975Z,98513.47
2023-04-30T23:44:22.442Z,98521.75
2023-04-30T23:46:50.723Z,98518.66
2023-04-30T23:49:18.223Z,98515.91
2023-04-30T23:51:45.695Z,98506.81
2023-04-30T23:54:12.228Z,98510.88
2023-04-30T23:56:38.705Z,98503.41
2023-04-30T23:59:05.188Z,98505.47
